Tiempo atmosférico en la estación meteorológica de Alcala de Henares, Madrid (605 m.)



Fecha
DESCASC
Temp. máxima en grados centígrados (hora)
DESCASC
Temp. mínima en grados centígrados (hora)
DESCASC
Temp. media en grados centígrados
DESCASC
Racha de viento máxima en m/sg (hora)
DESCASC
Velocidad máxima media en intervalos de 10 minutos(hora)
DESCASC
Precipitaciones diarias en mm
DESCASC
Precipitaciones de 00:00 a 06:00 en mm
DESCASC
Precipitaciones de 06:00 a 12:00 en mm
DESCASC
Precipitaciones de 12:00 a 18:00 en mm
DESCASC
Precipitaciones de 18:00 a 24:00 en mm
DESCASC
16-04-2019 23.1 (18:10) 3 (07:40) 13.1 13.06 (23:50) 7.5 (23:50) 0 0 0 0 0
15-04-2019 25.8 (17:30) 9.6 (07:40) 17.7 14.72 (18:50) 9.44 (18:50) 0 0 0 0 0
14-04-2019 25 (19:20) 4.6 (00:00) 14.8 6.94 (15:00) 3.89 (13:10) 0 0 0 0 0
13-04-2019 22.2 (17:10) -0.4 (00:00) 10.9 5.83 (16:40) 3.06 (01:20) 0 0 0 0 0
12-04-2019 19.7 (18:30) 0.1 (00:00) 9.9 7.5 (15:10) 3.89 (20:20) 0 0 0 0 0
11-04-2019 16.3 (16:10) -0.3 (00:00) 8 10.56 (16:20) 5.83 (17:40) 0 0 0 0 0
10-04-2019 15.4 (18:40) 3.6 (00:00) 9.5 10 (15:20) 6.67 (15:20) 1 0.4 0 0 0.6
09-04-2019 12.5 (16:50) 3.7 (00:00) 8.1 15.83 (15:30) 8.89 (15:30) 1.4 0 0 1.4 0
08-04-2019 17.2 (17:50) 7.9 (00:00) 12.6 9.72 (15:20) 5.83 (13:50) 2.4 0.4 1.6 0 0.4
07-04-2019 13.6 (16:40) 3.2 (00:00) 8.4 10.83 (18:10) 6.67 (18:10) 2.6 0.2 0 0 2.4
06-04-2019 11.7 (16:30) 2.5 (00:00) 7.1 21.11 (17:30) 9.72 (17:30) 4.8 0 0.4 3.4 1
05-04-2019 10.7 (01:20) 2.9 (00:00) 6.8 17.5 (19:00) 10.56 (19:00) 8 1.2 3 2.4 1.4
04-04-2019 14.8 (16:10) 1.2 (00:00) 8 8.61 (14:00) 5 (16:30) 0 0 0 0 0
03-04-2019 16.6 (15:00) 2.2 (00:00) 9.4 12.78 (15:00) 8.33 (14:50) 0 0 0 0 0
02-04-2019 19.3 (14:50) 8.1 (00:00) 13.7 11.39 (15:30) 6.11 (15:30) 0 0 0 0 0
01-04-2019 16.8 (17:50) 8.3 (00:00) 12.5 5.56 (17:50) 3.06 (00:10) 0.2 0 0.2 0 0
31-03-2019 13.2 (17:50) 7.1 (00:00) 10.1 7.5 (00:10) 3.61 (08:00) 1 0 0 0.8 0.2
30-03-2019 20.3 (16:50) 0.6 (00:00) 10.4 8.61 (23:10) 5.28 (00:10) 0 0 0 0 0
29-03-2019 19.5 (15:10) 1.3 (00:00) 10.4 12.22 (00:50) 6.94 (00:50) 0 0 0 0 0
28-03-2019 20.2 (18:20) 0.1 (00:00) 10.2 10 (23:59) 5 (23:59) 0 0 0 0 0
27-03-2019 20.6 (17:50) -2.4 (-00:0) 9.1 6.39 (23:10) 4.44 (23:10) 0 0 0 0 0
26-03-2019 22.6 (16:00) 4.5 (00:00) 13.6 11.67 (01:00) 7.78 (01:00) 0 0 0 0 0
25-03-2019 22.1 (16:10) 4.2 (00:00) 13.2 11.39 (23:59) 7.22 (23:59) 0 0 0 0 0
24-03-2019 22.9 (15:40) 4 (00:00) 13.4 8.61 (13:00) 5.56 (13:00) 0 0 0 0 0
23-03-2019 21.7 (14:00) 2.2 (00:00) 12 8.06 (12:20) 4.72 (13:00) 0 0 0 0 0
22-03-2019 20.2 (18:20) -1.6 (-00:0) 9.3 10.83 (14:10) 4.17 (22:20) 0 0 0 0 0
21-03-2019 16.3 (16:50) -1.7 (-00:0) 7.3 6.94 (14:20) 3.89 (00:10) 0 0 0 0 0
20-03-2019 15.9 (16:40) -2.2 (-00:0) 6.8 9.17 (10:50) 6.11 (10:10) 0 0 0 0 0
19-03-2019 16 (15:40) 4 (00:00) 10 11.94 (16:50) 6.94 (16:50) 0 0 0 0 0

Gráficas

Temp. máximas Temp. mínimas Temp. medias Precipitaciones Rachas de viento máximas Velocidades máximas media en intervalos de 10 minutos

Datos horarios

Fecha y hora oficial Temperatura (ºC) Velocidad del viento (km/h) Dirección del viento Racha (km/h) Dirección de racha Precipitación (mm) Presión (hPa) Tendencia (hPa) Humedad (%)
2019-04-17 23:00:00 17.1 5 Noroeste 22 Sudoeste 0 -- -- 61
2019-04-17 22:00:00 18.6 14 Sur 37 Sur 0 -- -- 54
2019-04-17 21:00:00 19.1 24 Sur 39 Sur 0 -- -- 52
2019-04-17 20:00:00 21.6 21 Sur 47 Sur 0 -- -- 40
2019-04-17 19:00:00 22.8 24 Sudeste 41 Sur 0 -- -- 37
2019-04-17 18:00:00 24 20 Sudeste 37 Sudeste 0 -- -- 35
2019-04-17 17:00:00 25.1 23 Sur 34 Sur 0 -- -- 32
2019-04-17 16:00:00 25.5 15 Sur 34 Sur 0 -- -- 31
2019-04-17 15:00:00 25.1 16 Sur 31 Sur 0 -- -- 33
2019-04-17 14:00:00 23.4 10 Sur 31 Sudeste 0 -- -- 37
2019-04-17 13:00:00 19.9 5 Sudeste 17 Sudeste 0 -- -- 47
2019-04-17 12:00:00 16.6 7 Noroeste 13 Norte 0 -- -- 56
2019-04-17 11:00:00 14.1 8 Nordeste 15 Nordeste 0 -- -- 64
2019-04-17 10:00:00 12.7 8 Nordeste 13 Nordeste 0 -- -- 67
2019-04-17 09:00:00 10.8 7 Este 16 Este 0 -- -- 73
2019-04-17 08:00:00 10.5 8 Este 15 Sudeste 0 -- -- 74
2019-04-17 07:00:00 11.6 6 Sudeste 19 Este 0 -- -- 69
2019-04-17 06:00:00 12.5 7 Sudeste 17 Sur 0 -- -- 66
2019-04-17 05:00:00 12.7 5 Nordeste 17 Este 0 -- -- 65
2019-04-17 04:00:00 13.2 6 Noroeste 26 Este 0 -- -- 64
2019-04-17 03:00:00 13.8 9 Sudeste 45 Sur 0 -- -- 62
2019-04-17 02:00:00 14.4 30 Sur 49 Sur 0 -- -- 61
2019-04-17 01:00:00 15.2 26 Sur 41 Sur 0 -- -- 61
2019-04-17 00:00:00 16.2 27 Sur 47 Sudeste 0 -- -- 57
2019-04-16 23:00:00 11.4 8 Nordeste 12 Nordeste 0 -- -- 56
2019-04-16 22:00:00 13.7 6 Nordeste 8 Nordeste 0 -- -- 52
2019-04-16 21:00:00 18.4 3 Sudeste 12 Sur 0 -- -- 41
2019-04-16 20:00:00 20.8 6 Sur 20 Sudeste 0 -- -- 33
2019-04-16 19:00:00 22.3 9 Sur 21 Sudeste 0 -- -- 29
2019-04-16 18:00:00 22.5 12 Sur 25 Sur 0 -- -- 29
2019-04-16 17:00:00 22.6 12 Sur 21 Sudeste 0 -- -- 30
2019-04-16 16:00:00 22.2 10 Oeste 22 Oeste 0 -- -- 28
2019-04-16 15:00:00 20.9 10 Sur 19 Sur 0 -- -- 34
2019-04-16 14:00:00 20.1 13 Sudeste 21 Sudeste 0 -- -- 38
2019-04-16 13:00:00 18.7 4 Sudeste 19 Sur 0 -- -- 40
2019-04-16 12:00:00 17.1 8 Nordeste 17 Sudeste 0 -- -- 45
2019-04-16 11:00:00 14.8 4 Este 10 Este 0 -- -- 57
2019-04-16 10:00:00 10.5 9 Este 17 Este 0 -- -- 71
2019-04-16 09:00:00 6.5 9 Este 13 Este 0 -- -- 86
2019-04-16 08:00:00 3.4 4 Este 8 Este 0 -- -- 92
2019-04-16 07:00:00 3.5 0 Calma 8 Este 0 -- -- 89
2019-04-16 06:00:00 4.1 3 Nordeste 10 Nordeste 0 -- -- 88
2019-04-16 05:00:00 4.7 2 Este 8 Oeste 0 -- -- 86
2019-04-16 04:00:00 5.1 2 Sudoeste 8 Nordeste 0 -- -- 83
2019-04-16 03:00:00 5.8 6 Nordeste 9 Nordeste 0 -- -- 81
2019-04-16 02:00:00 7.9 0 Calma 4 Sudoeste 0 -- -- 75
2019-04-16 01:00:00 9.7 0 Calma 7 Sudeste 0 -- -- 68
2019-04-16 00:00:00 12.8 4 Este 11 Noroeste 0 -- -- 59
2019-04-15 23:00:00 14.7 9 Norte 17 Norte 0 -- -- 53
2019-04-15 22:00:00 16.2 9 Oeste 27 Oeste 0 -- -- 52
2019-04-15 21:00:00 18.7 20 Oeste 44 Oeste 0 -- -- 45
2019-04-15 20:00:00 21.5 26 Oeste 50 Sudoeste 0 -- -- 40
2019-04-15 19:00:00 23.2 27 Sudoeste 53 Sudoeste 0 -- -- 27
2019-04-15 18:00:00 25.4 31 Oeste 52 Oeste 0 -- -- 29
2019-04-15 17:00:00 25.6 18 Sudoeste 45 Sudoeste 0 -- -- 33
2019-04-15 16:00:00 24.7 21 Sudoeste 44 Sur 0 -- -- 36
2019-04-15 15:00:00 24.7 17 Sudoeste 38 Sur 0 -- -- 39
2019-04-15 14:00:00 23.3 17 Sudoeste 33 Sur 0 -- -- 47
2019-04-15 13:00:00 21.1 13 Sur 21 Sudoeste 0 -- -- 54
2019-04-15 12:00:00 19.1 6 Oeste 11 Oeste 0 -- -- 60
2019-04-15 11:00:00 17.8 3 Nordeste 10 Nordeste 0 -- -- 64
2019-04-15 10:00:00 15 8 Nordeste 12 Nordeste 0 -- -- 74
2019-04-15 09:00:00 11.1 3 Nordeste 5 Nordeste 0 -- -- 85
2019-04-15 08:00:00 9.8 4 Este 10 Nordeste 0 -- -- 86
2019-04-15 07:00:00 9.9 9 Nordeste 12 Nordeste 0 -- -- 86
2019-04-15 06:00:00 9.9 5 Este 13 Este 0 -- -- 85
2019-04-15 05:00:00 9.7 7 Nordeste 10 Nordeste 0 -- -- 85
2019-04-15 04:00:00 10.1 4 Este 11 Este 0 -- -- 83
2019-04-15 03:00:00 10.5 9 Nordeste 12 Nordeste 0 -- -- 83
2019-04-15 02:00:00 11.1 5 Este 11 Nordeste 0 -- -- 78
2019-04-15 01:00:00 11.7 9 Nordeste 11 Nordeste 0 -- -- 76
2019-04-15 00:00:00 14.5 2 Sur 5 Sur 0 -- -- 63
2019-04-14 23:00:00 16.1 4 Sudoeste 11 Sur 0 -- -- 56
2019-04-14 22:00:00 17.7 6 Sur 10 Sur 0 -- -- 51
2019-04-14 21:00:00 20.5 4 Sudoeste 9 Sur 0 -- -- 45
2019-04-14 20:00:00 23.9 5 Sudoeste 14 Oeste 0 -- -- 37
2019-04-14 19:00:00 24.6 6 Oeste 18 Sudoeste 0 -- -- 35
2019-04-14 18:00:00 24.8 9 Noroeste 22 Oeste 0 -- -- 37
2019-04-14 17:00:00 24.3 12 Sudoeste 24 Oeste 0 -- -- 37
2019-04-14 16:00:00 23.9 9 Sudoeste 24 Oeste 0 -- -- 38
2019-04-14 15:00:00 22.6 14 Sudoeste 25 Oeste 0 -- -- 40
2019-04-14 14:00:00 21 13 Oeste 22 Oeste 0 -- -- 47
2019-04-14 13:00:00 19.8 10 Oeste 19 Oeste 0 -- -- 50
2019-04-14 12:00:00 17.8 4 Sudoeste 9 Oeste 0 -- -- 50
2019-04-14 11:00:00 14.4 3 Oeste 10 Noroeste 0 -- -- 55
2019-04-14 10:00:00 10.3 6 Este 9 Nordeste 0 -- -- 63
2019-04-14 09:00:00 6.9 4 Este 8 Este 0 -- -- 74
2019-04-14 08:00:00 4.6 5 Este 7 Este 0 -- -- 78
2019-04-14 07:00:00 4.9 3 Sudeste 10 Nordeste 0 -- -- 74
2019-04-14 06:00:00 5.1 5 Este 10 Este 0 -- -- 73
2019-04-14 05:00:00 5.6 5 Este 11 Este 0 -- -- 71
2019-04-14 04:00:00 5.4 3 Este 9 Este 0 -- -- 69
2019-04-14 03:00:00 5.6 9 Nordeste 11 Nordeste 0 -- -- 69
2019-04-14 02:00:00 6.3 3 Este 9 Este 0 -- -- 63
2019-04-14 01:00:00 7.8 4 Este 14 Nordeste 0 -- -- 56
2019-04-14 00:00:00 9.1 5 Norte 9 Nordeste 0 -- -- 47
2019-04-13 23:00:00 10.1 5 Nordeste 6 Nordeste 0 -- -- 44
2019-04-13 22:00:00 13.9 2 Sudoeste 9 Sur 0 -- -- 26
2019-04-13 21:00:00 17.3 8 Sur 11 Sudoeste 0 -- -- 23
2019-04-13 20:00:00 21.3 8 Sudoeste 13 Oeste 0 -- -- 16
2019-04-13 19:00:00 22.1 8 Oeste 16 Oeste 0 -- -- 16
2019-04-13 18:00:00 22.2 6 Sudoeste 14 Oeste 0 -- -- 13
2019-04-13 17:00:00 21.9 9 Oeste 21 Oeste 0 -- -- 13
2019-04-13 16:00:00 21.4 6 Sudoeste 18 Oeste 0 -- -- 14
2019-04-13 15:00:00 19.8 5 Norte 18 Noroeste 0 -- -- 17
2019-04-13 14:00:00 19.2 4 Sur 17 Sudoeste 0 -- -- 20
2019-04-13 13:00:00 17.1 6 Noroeste 14 Oeste 0 -- -- 27
2019-04-13 12:00:00 15.2 4 Oeste 12 Oeste 0 -- -- 38
2019-04-13 11:00:00 11.8 3 Este 10 Nordeste 0 -- -- 48
2019-04-13 10:00:00 7.1 6 Nordeste 11 Este 0 -- -- 65
2019-04-13 09:00:00 2.6 6 Este 12 Este 0 -- -- 82
2019-04-13 08:00:00 -0.4 3 Este 10 Este 0 -- -- 87
2019-04-13 07:00:00 0.1 7 Este 10 Nordeste 0 -- -- 83
2019-04-13 06:00:00 0.1 4 Este 8 Nordeste 0 -- -- 87
2019-04-13 05:00:00 1.2 3 Este 5 Este 0 -- -- 84
2019-04-13 04:00:00 2.2 0 Calma 6 Nordeste 0 -- -- 79
2019-04-13 03:00:00 4 3 Nordeste 6 Noroeste 0 -- -- 74
2019-04-13 02:00:00 6.1 3 Nordeste 13 Este 0 -- -- 65
2019-04-13 01:00:00 6.9 4 Nordeste 6 Sudeste 0 -- -- 64
2019-04-13 00:00:00 9.4 0 Calma 16 Este 0 -- -- 54
2019-04-12 23:00:00 12.1 12 Este 26 Este 0 -- -- 46
2019-04-12 22:00:00 12.4 2 Sudeste 19 Norte 0 -- -- 47
2019-04-12 21:00:00 14.9 10 Norte 22 Norte 0 -- -- 39
2019-04-12 20:00:00 17.6 13 Norte 22 Norte 0 -- -- 32
2019-04-12 19:00:00 19.4 10 Noroeste 18 Noroeste 0 -- -- 28
2019-04-12 18:00:00 19.3 6 Oeste 17 Norte 0 -- -- 33
2019-04-12 17:00:00 18.8 4 Noroeste 14 Nordeste 0 -- -- 33
2019-04-12 16:00:00 18.1 5 Sur 27 Noroeste 0 -- -- 37
2019-04-12 15:00:00 16.6 6 Norte 20 Noroeste 0 -- -- 37
2019-04-12 14:00:00 15.3 9 Norte 23 Noroeste 0 -- -- 43
2019-04-12 13:00:00 14 5 Oeste 14 Este 0 -- -- 47
2019-04-12 12:00:00 12.3 4 Nordeste 13 Nordeste 0 -- -- 51
2019-04-12 11:00:00 9.5 0 Calma 7 Nordeste 0 -- -- 62
2019-04-12 10:00:00 6.6 4 Sudeste 8 Sudeste 0 -- -- 77
2019-04-12 09:00:00 2.4 0 Calma 3 Nordeste 0 -- -- 94
2019-04-12 08:00:00 0.3 0 Calma 6 Este 0 -- -- 91
2019-04-12 07:00:00 0.5 4 Nordeste 8 Nordeste 0 -- -- 92
2019-04-12 06:00:00 0.4 6 Nordeste 9 Este 0 -- -- 91
2019-04-12 05:00:00 1.3 0 Calma 4 Sudoeste 0 -- -- 89
2019-04-12 04:00:00 2.1 0 Calma 6 Sur 0 -- -- 86
2019-04-12 03:00:00 3.2 2 Este 8 Nordeste 0 -- -- 82
2019-04-12 02:00:00 4 3 Este 12 Este 0 -- -- 81
2019-04-12 01:00:00 4.5 8 Este 11 Nordeste 0 -- -- 77
2019-04-12 00:00:00 5.2 7 Este 10 Este 0 -- -- 74
2019-04-11 23:00:00 7.3 0 Calma 12 Este 0 -- -- 65
2019-04-11 22:00:00 9.1 6 Nordeste 14 Nordeste 0 -- -- 55
2019-04-11 21:00:00 12.2 9 Nordeste 24 Nordeste 0 -- -- 45
2019-04-11 20:00:00 14.3 16 Nordeste 31 Nordeste 0 -- -- 40
2019-04-11 19:00:00 14.9 18 Norte 36 Norte 0 -- -- 39
2019-04-11 18:00:00 16 20 Norte 35 Norte 0 -- -- 35
2019-04-11 17:00:00 14.8 18 Nordeste 38 Norte 0 -- -- 37
2019-04-11 16:00:00 15.5 20 Norte 33 Noroeste 0 -- -- 38
2019-04-11 15:00:00 15.6 19 Norte 36 Norte 0 -- -- 39
2019-04-11 14:00:00 14.8 15 Norte 32 Norte 0 -- -- 43
2019-04-11 13:00:00 13.4 9 Norte 20 Norte 0 -- -- 51
2019-04-11 12:00:00 12.1 10 Nordeste 18 Nordeste 0 -- -- 58
2019-04-11 11:00:00 10.1 6 Este 13 Este 0 -- -- 64
2019-04-11 10:00:00 6.2 3 Sudeste 7 Nordeste 0 -- -- 86
2019-04-11 09:00:00 2.5 5 Este 8 Nordeste 0 -- -- 95
2019-04-11 08:00:00 0.1 3 Este 5 Este 0 -- -- 94
2019-04-11 07:00:00 0 4 Este 6 Este 0 -- -- 91
2019-04-11 06:00:00 1.3 0 Calma 6 Nordeste 0 -- -- 91
2019-04-11 05:00:00 1.9 0 Calma 7 Este 0 -- -- 91
2019-04-11 04:00:00 3.2 3 Nordeste 5 Nordeste 0 -- -- 90
2019-04-11 03:00:00 3.7 5 Nordeste 10 Este 0 -- -- 88
2019-04-11 02:00:00 5.3 7 Este 9 Este 0 -- -- 83
2019-04-11 01:00:00 6.5 8 Este 12 Este 0 -- -- 80
2019-04-11 00:00:00 7.6 4 Este 6 Este 0 -- -- 79
2019-04-10 23:00:00 8.1 3 Nordeste 11 Este 0 -- -- 72
2019-04-10 22:00:00 9.5 4 Nordeste 12 Norte 0 -- -- 69
2019-04-10 21:00:00 10.6 5 Noroeste 19 Oeste 0 -- -- 63
2019-04-10 20:00:00 11.8 5 Noroeste 16 Norte 0.2 -- -- 64
2019-04-10 19:00:00 -- 20 Norte 31 Norte 0.4 -- -- --
2019-04-10 18:00:00 14.7 14 Norte 30 Norte 0 -- -- 44
2019-04-10 17:00:00 14.2 18 Norte 28 Noroeste 0 -- -- 49
2019-04-10 16:00:00 13 4 Sur 36 Noroeste 0 -- -- 56
2019-04-10 15:00:00 10.4 10 Este 33 Nordeste 0 -- -- 70
2019-04-10 14:00:00 12.1 7 Norte 14 Norte 0 -- -- 52
2019-04-10 13:00:00 11.3 10 Norte 19 Nordeste 0 -- -- 60
2019-04-10 12:00:00 10.3 9 Norte 14 Nordeste 0 -- -- 60
2019-04-10 11:00:00 10.4 4 Oeste 16 Oeste 0 -- -- 61
2019-04-10 10:00:00 8.2 7 Oeste 12 Sudoeste 0 -- -- 75
2019-04-10 09:00:00 4.1 2 Nordeste 6 Sudoeste 0 -- -- 92
2019-04-10 08:00:00 3.6 4 Sudoeste 13 Oeste 0 -- -- 88
2019-04-10 07:00:00 4.8 6 Oeste 10 Oeste 0 -- -- 86
2019-04-10 06:00:00 6 4 Oeste 12 Oeste 0 -- -- 84
2019-04-10 05:00:00 6.1 8 Oeste 14 Oeste 0.2 -- -- 85
2019-04-10 04:00:00 6.2 5 Sur 17 Noroeste 0.2 -- -- 88
2019-04-10 03:00:00 3.8 0 Calma 4 Sudoeste 0 -- -- 91
2019-04-10 02:00:00 4.3 0 Calma 5 Este 0 -- -- 88
2019-04-10 01:00:00 5 4 Oeste 8 Sudoeste 0 -- -- 87
2019-04-10 00:00:00 4.9 4 Sudeste 8 Nordeste 0 -- -- 86
2019-04-09 23:00:00 6.3 2 Oeste 8 Noroeste 0 -- -- 78
2019-04-09 22:00:00 8.8 6 Noroeste 44 Noroeste 0 -- -- 67
2019-04-09 21:00:00 10.2 31 Noroeste 52 Noroeste 0 -- -- 61
2019-04-09 20:00:00 12.1 3 Norte 18 Noroeste 0 -- -- 50
2019-04-09 19:00:00 12.1 7 Norte 14 Noroeste 0 -- -- 52
2019-04-09 18:00:00 11.4 10 Noroeste 44 Noroeste 0 -- -- 54
2019-04-09 17:00:00 11.6 28 Noroeste 47 Noroeste 0 -- -- 56
2019-04-09 16:00:00 8 12 Oeste 57 Noroeste 0.8 -- -- 83
2019-04-09 15:00:00 10.5 26 Sudoeste 44 Sudoeste 0 -- -- 73
2019-04-09 14:00:00 10.9 22 Oeste 36 Sudoeste 0 -- -- 72
2019-04-09 13:00:00 9 14 Oeste 37 Oeste 0.6 -- -- 87
2019-04-09 12:00:00 9.7 19 Sudoeste 32 Oeste 0 -- -- 76
2019-04-09 11:00:00 9.2 21 Sudoeste 33 Sudoeste 0 -- -- 76
2019-04-09 10:00:00 7.9 14 Sudoeste 24 Sudoeste 0 -- -- 85
2019-04-09 09:00:00 6.5 8 Sudoeste 18 Sudoeste 0 -- -- 88
2019-04-09 08:00:00 5.9 10 Sudoeste 19 Sudoeste 0 -- -- 90
2019-04-09 07:00:00 5.5 6 Sudoeste 13 Sudoeste 0 -- -- 90
2019-04-09 06:00:00 6.1 8 Sudoeste 15 Sudoeste 0 -- -- 90
2019-04-09 05:00:00 5.3 8 Sudoeste 13 Oeste 0 -- -- 95
2019-04-09 04:00:00 3.8 0 Calma 9 Nordeste 0 -- -- 91
2019-04-09 03:00:00 5.3 0 Calma 5 Nordeste 0 -- -- 90
2019-04-09 02:00:00 6.9 3 Oeste 8 Oeste 0 -- -- 88
2019-04-09 01:00:00 7.6 4 Nordeste 13 Sudeste 0 -- -- 87
2019-04-09 00:00:00 8.6 10 Norte 29 Noroeste 0.4 -- -- 83
2019-04-08 23:00:00 10.2 5 Norte 11 Norte 0 -- -- 77
2019-04-08 22:00:00 10.7 2 Sudeste 5 Sudeste 0 -- -- 74
2019-04-08 21:00:00 11.3 3 Sudeste 35 Sudoeste 0 -- -- 66
2019-04-08 20:00:00 14.7 20 Sudoeste 35 Oeste 0 -- -- 47
2019-04-08 19:00:00 16.5 17 Sudoeste 31 Oeste 0 -- -- 41
2019-04-08 18:00:00 16.9 19 Sudoeste 31 Oeste 0 -- -- 41
2019-04-08 17:00:00 16.2 19 Oeste 32 Oeste 0 -- -- 47
2019-04-08 16:00:00 15.3 19 Oeste 35 Sudoeste 0 -- -- 52
2019-04-08 15:00:00 14.1 15 Oeste 33 Sudoeste 0 -- -- 68
2019-04-08 14:00:00 13.9 17 Oeste 32 Oeste 0 -- -- 68
2019-04-08 13:00:00 13 14 Sudoeste 30 Sudoeste 0 -- -- 84
2019-04-08 12:00:00 11.4 14 Sudoeste 23 Oeste 0 -- -- 90
2019-04-08 11:00:00 10 11 Sudoeste 22 Sudoeste 0 -- -- 93
2019-04-08 10:00:00 9.7 12 Sudoeste 22 Sudoeste 0.4 -- -- 95
2019-04-08 09:00:00 9.1 8 Sudoeste 16 Sudoeste 0.2 -- -- 96
2019-04-08 08:00:00 8.7 3 Sudoeste 9 Sudoeste 1 -- -- 95
2019-04-08 07:00:00 8.5 3 Sudoeste 6 Oeste 0 -- -- 95
2019-04-08 06:00:00 8.2 0 Calma 3 Oeste 0 -- -- 95
2019-04-08 05:00:00 8.1 0 Calma 6 Norte 0 -- -- 95
2019-04-08 04:00:00 8 4 Norte 8 Norte 0.2 -- -- 94
2019-04-08 03:00:00 7.9 0 Calma 4 Oeste 0 -- -- 93
2019-04-08 02:00:00 7.9 2 Oeste 6 Sudoeste 0.2 -- -- 93
2019-04-08 01:00:00 8 3 Sur 6 Sur 0 -- -- 91
2019-04-08 00:00:00 7.9 0 Calma 4 Sur 0.2 -- -- 91
2019-04-07 23:00:00 8.1 3 Sur 5 Sur 0.2 -- -- 90
2019-04-07 22:00:00 8.4 3 Sudeste 4 Sudeste 0.4 -- -- 88
2019-04-07 21:00:00 8.8 2 Sur 5 Oeste 1.2 -- -- 86
2019-04-07 20:00:00 9.4 3 Oeste 24 Oeste 0.2 -- -- 78
2019-04-07 19:00:00 9.9 4 Oeste 39 Oeste 0.2 -- -- 73
2019-04-07 18:00:00 12.7 20 Oeste 35 Oeste 0 -- -- 50
2019-04-07 17:00:00 13.4 15 Oeste 27 Noroeste 0 -- -- 42
2019-04-07 16:00:00 13.1 16 Oeste 31 Sudoeste 0 -- -- 41
2019-04-07 15:00:00 12.8 16 Oeste 35 Oeste 0 -- -- 45
2019-04-07 14:00:00 11.9 8 Oeste 20 Oeste 0 -- -- 47
2019-04-07 13:00:00 11.7 5 Sudoeste 13 Oeste 0 -- -- 51
2019-04-07 12:00:00 9.2 7 Oeste 27 Oeste 0 -- -- 58
2019-04-07 11:00:00 8.8 6 Oeste 19 Oeste 0 -- -- 63
2019-04-07 10:00:00 6.7 9 Sudoeste 17 Sudoeste 0 -- -- 76
2019-04-07 09:00:00 4.7 10 Sudoeste 18 Sudoeste 0 -- -- 85
2019-04-07 08:00:00 3.2 2 Sudoeste 17 Sudoeste 0 -- -- 88
2019-04-07 07:00:00 4.4 10 Sudoeste 22 Oeste 0 -- -- 87
2019-04-07 06:00:00 4.8 9 Sudoeste 18 Sudoeste 0.2 -- -- 88
2019-04-07 05:00:00 4.8 8 Sudoeste 26 Sudoeste 0 -- -- 89
2019-04-07 04:00:00 4.9 11 Sudoeste 22 Sudoeste 0 -- -- 86
2019-04-07 03:00:00 4.7 2 Sur 14 Sudoeste 0 -- -- 84
2019-04-07 02:00:00 4.2 7 Oeste 24 Sudoeste 0 -- -- 83
2019-04-07 01:00:00 5.1 16 Sudoeste 25 Sudoeste 0 -- -- 80
2019-04-07 00:00:00 5.1 3 Sur 19 Sudoeste 0 -- -- 77
2019-04-06 23:00:00 6.4 13 Oeste 32 Oeste 0 -- -- 76
2019-04-06 22:00:00 7 18 Oeste 31 Oeste 0 -- -- 79
2019-04-06 21:00:00 7.2 17 Sudoeste 34 Sudoeste 0 -- -- 79
2019-04-06 20:00:00 8.1 18 Oeste 29 Oeste 0 -- -- 68
2019-04-06 19:00:00 7.3 15 Oeste 32 Oeste 1 -- -- 86
2019-04-06 18:00:00 5.1 17 Oeste 76 Oeste 3.2 -- -- 80
2019-04-06 17:00:00 11.3 27 Oeste 53 Oeste 0 -- -- 56
2019-04-06 16:00:00 10.7 27 Oeste 50 Sudoeste 0 -- -- 58
2019-04-06 15:00:00 10.7 25 Sudoeste 45 Sudoeste 0 -- -- 67
2019-04-06 14:00:00 9 19 Sudoeste 36 Sudoeste 0.2 -- -- 81
2019-04-06 13:00:00 7.5 22 Oeste 33 Oeste 0 -- -- 80
2019-04-06 12:00:00 6.2 18 Sudoeste 29 Sudoeste 0.4 -- -- 86
2019-04-06 11:00:00 6.1 18 Sudoeste 29 Oeste 0 -- -- 81
2019-04-06 10:00:00 5 16 Sudoeste 29 Sudoeste 0 -- -- 85
2019-04-06 09:00:00 3.7 13 Sudoeste 23 Sudoeste 0 -- -- 89
2019-04-06 08:00:00 2.6 9 Sudoeste 21 Sudoeste 0 -- -- 91
2019-04-06 07:00:00 2.9 12 Sudoeste 24 Sudoeste 0 -- -- 90
2019-04-06 06:00:00 3.3 8 Sudoeste 23 Sudoeste 0 -- -- 89
2019-04-06 05:00:00 4.3 9 Sudoeste 27 Sudoeste 0 -- -- 89
2019-04-06 04:00:00 4.6 13 Sudoeste 23 Sudoeste 0 -- -- 87
2019-04-06 03:00:00 4.4 6 Sudoeste 21 Oeste 0 -- -- 88
2019-04-06 02:00:00 4.6 9 Sudoeste 21 Sudoeste 0 -- -- 87
2019-04-06 01:00:00 4.4 9 Sudoeste 18 Sudoeste 0 -- -- 86
2019-04-06 00:00:00 3.9 8 Sudoeste 14 Sudoeste 0 -- -- 87
2019-04-05 23:00:00 3 5 Sudoeste 6 Sudoeste 0 -- -- 91
2019-04-05 22:00:00 3.7 0 Calma 5 Sur 0 -- -- 88
2019-04-05 21:00:00 4.9 2 Oeste 14 Oeste 0 -- -- 84
2019-04-05 20:00:00 5 9 Sudoeste 51 Oeste 0.4 -- -- 86
2019-04-05 19:00:00 4.7 38 Oeste 63 Oeste 1 -- -- 83
2019-04-05 18:00:00 7.1 14 Oeste 36 Sudoeste 0 -- -- 83
2019-04-05 17:00:00 9.1 14 Sudoeste 24 Oeste 0 -- -- 80
2019-04-05 16:00:00 7.7 8 Sudoeste 45 Sudoeste 2.2 -- -- 91
2019-04-05 15:00:00 9.5 19 Sudoeste 36 Sur 0.2 -- -- 73
2019-04-05 14:00:00 9 14 Sur 29 Sur 0 -- -- 82
2019-04-05 13:00:00 7.2 13 Sudoeste 26 Sur 0 -- -- 86
2019-04-05 12:00:00 6 8 Sur 15 Sur 0.2 -- -- 88
2019-04-05 11:00:00 5.8 6 Sudoeste 27 Sudoeste 2 -- -- 89
2019-04-05 10:00:00 6.8 10 Sur 24 Sur 0 -- -- 85
2019-04-05 09:00:00 6.5 12 Sudoeste 24 Sudoeste 0.2 -- -- 87
2019-04-05 08:00:00 5.9 3 Sudoeste 14 Sudoeste 0 -- -- 89
2019-04-05 07:00:00 5.7 6 Sudoeste 23 Sudoeste 0.6 -- -- 89
2019-04-05 06:00:00 5.8 9 Sudoeste 19 Oeste 0.6 -- -- 88
2019-04-05 05:00:00 6.1 8 Sudoeste 23 Oeste 0.6 -- -- 85
2019-04-05 04:00:00 7.1 16 Oeste 38 Oeste 0 -- -- 75
2019-04-05 03:00:00 9.5 25 Oeste 44 Sudoeste 0 -- -- 51
2019-04-05 02:00:00 10.6 12 Sudoeste 23 Sudoeste 0 -- -- 38
2019-04-05 01:00:00 10.4 7 Oeste 12 Oeste 0 -- -- 39
2019-04-05 00:00:00 9.8 4 Sur 10 Sur 0 -- -- 39
2019-04-04 23:00:00 9.5 7 Sur 10 Sur 0 -- -- 38
2019-04-04 22:00:00 9.3 3 Sudoeste 7 Sur 0 -- -- 38
2019-04-04 21:00:00 11.1 4 Sur 17 Oeste 0 -- -- 34
2019-04-04 20:00:00 13.4 15 Oeste 26 Oeste 0 -- -- 29
2019-04-04 19:00:00 14.6 10 Sudoeste 30 Oeste 0 -- -- 22
2019-04-04 18:00:00 14.1 17 Oeste 30 Sudoeste 0 -- -- 23
2019-04-04 17:00:00 14 10 Oeste 31 Sudoeste 0 -- -- 23
2019-04-04 16:00:00 14.4 15 Oeste 28 Sudoeste 0 -- -- 24
2019-04-04 15:00:00 13.3 12 Oeste 24 Oeste 0 -- -- 25
2019-04-04 14:00:00 12.2 14 Oeste 31 Oeste 0 -- -- 28
2019-04-04 13:00:00 10.5 8 Oeste 17 Oeste 0 -- -- 33
2019-04-04 12:00:00 9 5 Sur 15 Sudoeste 0 -- -- 38
2019-04-04 11:00:00 7.2 6 Noroeste 10 Noroeste 0 -- -- 42
2019-04-04 10:00:00 5.5 3 Sudoeste 13 Este 0 -- -- 48
2019-04-04 09:00:00 2.1 0 Calma 5 Este 0 -- -- 60
2019-04-04 08:00:00 2.2 4 Sudeste 27 Nordeste 0 -- -- 56
2019-04-04 07:00:00 3.3 17 Nordeste 27 Nordeste 0 -- -- 52
2019-04-04 06:00:00 3.5 12 Nordeste 24 Norte 0 -- -- 53
2019-04-04 05:00:00 2 5 Este 9 Este 0 -- -- 59
2019-04-04 04:00:00 3.2 6 Este 13 Nordeste 0 -- -- 55
2019-04-04 03:00:00 4.9 8 Nordeste 22 Nordeste 0 -- -- 49
2019-04-04 02:00:00 6 5 Norte 22 Norte 0 -- -- 46
2019-04-04 01:00:00 7.4 12 Norte 28 Norte 0 -- -- 42
2019-04-04 00:00:00 8.3 19 Norte 30 Nordeste 0 -- -- 41
2019-04-03 23:00:00 8.6 10 Nordeste 22 Nordeste 0 -- -- 44
2019-04-03 22:00:00 9.2 9 Nordeste 19 Nordeste 0 -- -- 40
2019-04-03 21:00:00 11.1 14 Noroeste 30 Norte 0 -- -- 30
2019-04-03 20:00:00 13.3 15 Noroeste 37 Noroeste 0 -- -- 27
2019-04-03 19:00:00 13.5 20 Norte 36 Norte 0 -- -- 28
2019-04-03 18:00:00 14 14 Norte 34 Noroeste 0 -- -- 31
2019-04-03 17:00:00 15.6 13 Noroeste 31 Oeste 0 -- -- 33
2019-04-03 16:00:00 14.4 18 Norte 33 Norte 0 -- -- 38
2019-04-03 15:00:00 16.6 28 Oeste 46 Oeste 0 -- -- 38
2019-04-03 14:00:00 16 22 Oeste 36 Oeste 0 -- -- 40
2019-04-03 13:00:00 15.3 19 Oeste 32 Oeste 0 -- -- 46
2019-04-03 12:00:00 14.5 14 Oeste 27 Oeste 0 -- -- 46
2019-04-03 11:00:00 13 14 Sudoeste 21 Sudoeste 0 -- -- 52
2019-04-03 10:00:00 8.6 5 Sudoeste 12 Sudoeste 0 -- -- 77
2019-04-03 09:00:00 3.8 0 Calma 4 Sudoeste 0 -- -- 94
2019-04-03 08:00:00 2.6 3 Este 4 Este 0 -- -- 91
2019-04-03 07:00:00 3.2 0 Calma 4 Este 0 -- -- 89
2019-04-03 06:00:00 4.3 4 Nordeste 6 Este 0 -- -- 90
2019-04-03 05:00:00 5.5 2 Nordeste 5 Este 0 -- -- 89
2019-04-03 04:00:00 7.1 2 Este 4 Nordeste 0 -- -- 87
2019-04-03 03:00:00 7.5 5 Este 11 Nordeste 0 -- -- 89
2019-04-03 02:00:00 7.1 2 Nordeste 9 Oeste 0 -- -- 85
2019-04-03 01:00:00 8.6 4 Oeste 8 Sudoeste 0 -- -- 81
2019-04-03 00:00:00 9.5 4 Oeste 5 Oeste 0 -- -- 77
2019-04-02 23:00:00 11.1 2 Oeste 11 Sudoeste 0 -- -- 69
2019-04-02 22:00:00 12.5 6 Sudoeste 17 Sudoeste 0 -- -- 68
2019-04-02 21:00:00 13.9 8 Sudoeste 18 Sudoeste 0 -- -- 61
2019-04-02 20:00:00 16.6 10 Sudoeste 22 Sudoeste 0 -- -- 50
2019-04-02 19:00:00 16.4 7 Oeste 29 Oeste 0 -- -- 49
2019-04-02 18:00:00 18.2 7 Oeste 21 Sudoeste 0 -- -- 44
2019-04-02 17:00:00 16.2 15 Sudoeste 23 Sudoeste 0 -- -- 53
2019-04-02 16:00:00 14.1 12 Norte 41 Noroeste 0 -- -- 67
2019-04-02 15:00:00 19 13 Sudoeste 23 Oeste 0 -- -- 40
2019-04-02 14:00:00 17.7 12 Oeste 22 Oeste 0 -- -- 47
2019-04-02 13:00:00 16.3 4 Sur 17 Oeste 0 -- -- 58
2019-04-02 12:00:00 14.2 6 Noroeste 15 Oeste 0 -- -- 70
2019-04-02 11:00:00 12.1 2 Noroeste 6 Sur 0 -- -- 78
2019-04-02 10:00:00 10.1 0 Calma 7 Este 0 -- -- 87
2019-04-02 09:00:00 8.9 4 Nordeste 6 Este 0 -- -- 91
2019-04-02 08:00:00 8.3 3 Este 6 Sudeste 0 -- -- 88
2019-04-02 07:00:00 9.3 0 Calma 8 Sudoeste 0 -- -- 86
2019-04-02 06:00:00 9 2 Sudeste 4 Este 0 -- -- 87
2019-04-02 05:00:00 9.9 3 Sur 10 Sur 0 -- -- 84
2019-04-02 04:00:00 10.5 5 Sur 11 Sur 0 -- -- 83
2019-04-02 03:00:00 11.1 6 Sur 18 Sudeste 0 -- -- 81
2019-04-02 02:00:00 11.4 9 Sur 17 Sur 0 -- -- 78
2019-04-02 01:00:00 11.3 6 Sudoeste 14 Sudoeste 0 -- -- 74
2019-04-02 00:00:00 11.8 5 Sudoeste 11 Sudoeste 0 -- -- 69
2019-04-01 23:00:00 11.8 5 Sur 15 Sur 0 -- -- 71
2019-04-01 22:00:00 11.3 0 Calma 5 Sudeste 0 -- -- 70
2019-04-01 21:00:00 13.2 5 Sudeste 8 Sur 0 -- -- 64
2019-04-01 20:00:00 15.1 4 Sur 14 Sur 0 -- -- 57
2019-04-01 19:00:00 16.2 8 Sur 15 Sur 0 -- -- 53
2019-04-01 18:00:00 16.6 6 Sur 20 Este 0 -- -- 55
2019-04-01 17:00:00 16.1 3 Oeste 10 Nordeste 0 -- -- 57
2019-04-01 16:00:00 15.6 3 Sur 9 Sur 0 -- -- 59
2019-04-01 15:00:00 14 4 Este 9 Noroeste 0 -- -- 69
2019-04-01 14:00:00 12.5 4 Oeste 10 Sudoeste 0 -- -- 74
2019-04-01 13:00:00 12.5 2 Norte 9 Sudoeste 0 -- -- 74
2019-04-01 12:00:00 12.2 2 Este 6 Este 0 -- -- 76
2019-04-01 11:00:00 11 3 Nordeste 6 Este 0 -- -- 83
2019-04-01 10:00:00 9.6 3 Este 8 Nordeste 0 -- -- 93
2019-04-01 09:00:00 8.7 5 Este 8 Este 0 -- -- 94
2019-04-01 08:00:00 8.3 4 Este 8 Este 0 -- -- 93
2019-04-01 07:00:00 8.3 5 Este 9 Este 0.2 -- -- 93
2019-04-01 06:00:00 8.5 5 Este 9 Este 0 -- -- 90
2019-04-01 05:00:00 8.6 6 Este 10 Nordeste 0 -- -- 89
2019-04-01 04:00:00 8.5 6 Este 9 Este 0 -- -- 91
2019-04-01 03:00:00 8.6 6 Nordeste 11 Este 0 -- -- 90
2019-04-01 02:00:00 8.7 4 Este 12 Nordeste 0 -- -- 90
2019-04-01 01:00:00 8.8 7 Este 16 Nordeste 0 -- -- 91
2019-04-01 00:00:00 8.8 10 Este 16 Este 0 -- -- 91
2019-03-31 23:00:00 9 10 Nordeste 18 Nordeste 0 -- -- 91
2019-03-31 22:00:00 9.5 9 Nordeste 17 Nordeste 0 -- -- 91
2019-03-31 21:00:00 10.2 6 Este 10 Nordeste 0 -- -- 86
2019-03-31 20:00:00 10.7 6 Nordeste 12 Norte 0.2 -- -- 82
2019-03-31 19:00:00 11.9 8 Sudeste 17 Este 0 -- -- 71
2019-03-31 18:00:00 12.8 13 Este 22 Este 0 -- -- 70
2019-03-31 17:00:00 12.1 8 Nordeste 12 Este 0.2 -- -- 76
2019-03-31 16:00:00 11.7 9 Este 14 Este 0.4 -- -- 77
2019-03-31 15:00:00 12.4 6 Este 11 Este 0.2 -- -- 74
2019-03-31 14:00:00 12.1 2 Noroeste 9 Noroeste 0 -- -- 65
2019-03-31 13:00:00 11.1 4 Norte 8 Norte 0 -- -- 68
2019-03-31 12:00:00 11.2 3 Este 6 Este 0 -- -- 62
2019-03-31 11:00:00 11.2 5 Nordeste 11 Este 0 -- -- 58
2019-03-31 10:00:00 9.9 5 Este 9 Este 0 -- -- 58
2019-03-31 09:00:00 8.2 5 Este 17 Este 0 -- -- 61
2019-03-31 08:00:00 7.3 13 Nordeste 17 Nordeste 0 -- -- 62
2019-03-31 07:00:00 7.7 4 Nordeste 11 Este 0 -- -- 65
2019-03-31 06:00:00 8 6 Este 9 Este 0 -- -- 63
2019-03-31 05:00:00 8.8 5 Nordeste 13 Este 0 -- -- 63
2019-03-31 03:00:00 10.4 3 Nordeste 11 Este 0 -- -- 61
2019-03-31 01:00:00 11.6 4 Este 27 Este 0 -- -- 58
2019-03-31 00:00:00 11.5 5 Nordeste 31 Sudeste 0 -- -- 58
2019-03-30 23:00:00 13.2 15 Sur 28 Sur 0 -- -- 52
2019-03-30 22:00:00 13.3 13 Sur 22 Sur 0 -- -- 48
2019-03-30 21:00:00 11.4 3 Nordeste 4 Nordeste 0 -- -- 45
2019-03-30 20:00:00 15 0 Calma 6 Sur 0 -- -- 36
2019-03-30 19:00:00 18.4 5 Sur 14 Sur 0 -- -- 30
2019-03-30 18:00:00 19.6 8 Sudeste 17 Este 0 -- -- 28
2019-03-30 17:00:00 20.2 4 Sudeste 15 Sudoeste 0 -- -- 25
2019-03-30 16:00:00 19.1 4 Nordeste 16 Nordeste 0 -- -- 28
2019-03-30 15:00:00 19.2 6 Sudeste 20 Sur 0 -- -- 29
2019-03-30 14:00:00 18.5 6 Sur 18 Sudeste 0 -- -- 31
2019-03-30 13:00:00 17 3 Oeste 15 Sur 0 -- -- 34
2019-03-30 12:00:00 15.4 5 Sudoeste 15 Sudeste 0 -- -- 35
2019-03-30 11:00:00 13.4 7 Nordeste 12 Este 0 -- -- 38
2019-03-30 10:00:00 10.9 5 Nordeste 14 Nordeste 0 -- -- 46
2019-03-30 09:00:00 6.8 7 Este 13 Este 0 -- -- 59
2019-03-30 08:00:00 2.4 6 Este 12 Nordeste 0 -- -- 75
2019-03-30 07:00:00 1.1 6 Este 13 Este 0 -- -- 76
2019-03-30 06:00:00 0.7 4 Este 7 Este 0 -- -- 73
2019-03-30 05:00:00 2.2 3 Este 9 Nordeste 0 -- -- 66
2019-03-30 04:00:00 3.8 3 Nordeste 6 Este 0 -- -- 61
2019-03-30 03:00:00 6.9 0 Calma 17 Este 0 -- -- 52
2019-03-30 02:00:00 8.5 5 Este 13 Sudeste 0 -- -- 50
2019-03-30 01:00:00 9.5 5 Nordeste 29 Sur 0 -- -- 48
2019-03-30 00:00:00 10.3 20 Sur 32 Sur 0 -- -- 46
2019-03-29 23:00:00 11.4 19 Sur 33 Sur 0 -- -- 45
2019-03-29 22:00:00 12.8 19 Sur 29 Sur 0 -- -- 43
2019-03-29 21:00:00 13.3 10 Sur 19 Sur 0 -- -- 40
2019-03-29 20:00:00 14.4 12 Sur 29 Sur 0 -- -- 37
2019-03-29 19:00:00 16.5 18 Sur 30 Sur 0 -- -- 33
2019-03-29 18:00:00 18.5 14 Sur 28 Sudeste 0 -- -- 27
2019-03-29 17:00:00 19 13 Sur 28 Sudeste 0 -- -- 26
2019-03-29 16:00:00 19 8 Sur 33 Sur 0 -- -- 25
2019-03-29 15:00:00 19.3 13 Sudoeste 32 Sudeste 0 -- -- 25
2019-03-29 14:00:00 18.7 13 Sur 31 Sur 0 -- -- 25
2019-03-29 13:00:00 17.5 16 Sur 32 Sudeste 0 -- -- 27
2019-03-29 12:00:00 16.2 10 Sudeste 31 Sudeste 0 -- -- 29
2019-03-29 11:00:00 14.6 14 Sur 25 Sudeste 0 -- -- 30
2019-03-29 10:00:00 11.8 7 Nordeste 12 Este 0 -- -- 35
2019-03-29 09:00:00 7.1 7 Este 13 Este 0 -- -- 54
2019-03-29 08:00:00 2.8 7 Este 12 Este 0 -- -- 64
2019-03-29 07:00:00 1.4 7 Este 11 Este 0 -- -- 67
2019-03-29 06:00:00 1.9 4 Este 10 Este 0 -- -- 64
2019-03-29 05:00:00 3.5 6 Este 11 Este 0 -- -- 57
2019-03-29 04:00:00 7.2 3 Sur 19 Sudoeste 0 -- -- 45
2019-03-29 03:00:00 8.8 4 Noroeste 10 Norte 0 -- -- 41
2019-03-29 02:00:00 9.7 4 Norte 37 Sur 0 -- -- 39
2019-03-29 01:00:00 11 24 Sur 44 Sudeste 0 -- -- 35
2019-03-29 00:00:00 11.3 18 Sur 36 Sur 0 -- -- 35
2019-03-28 23:00:00 6.6 2 Norte 8 Nordeste 0 -- -- 47
2019-03-28 22:00:00 7.3 3 Nordeste 5 Nordeste 0 -- -- 45
2019-03-28 21:00:00 9.9 4 Nordeste 6 Sur 0 -- -- 40
2019-03-28 20:00:00 14.8 6 Sur 8 Noroeste 0 -- -- 28
2019-03-28 19:00:00 18.7 6 Noroeste 9 Oeste 0 -- -- 21
2019-03-28 18:00:00 20 5 Noroeste 17 Oeste 0 -- -- 20
2019-03-28 17:00:00 20.1 5 Oeste 17 Oeste 0 -- -- 21
2019-03-28 16:00:00 19.7 9 Noroeste 18 Noroeste 0 -- -- 21
2019-03-28 15:00:00 19 7 Noroeste 17 Noroeste 0 -- -- 22
2019-03-28 14:00:00 18 3 Norte 17 Oeste 0 -- -- 24
2019-03-28 13:00:00 17 4 Oeste 12 Sur 0 -- -- 25
2019-03-28 12:00:00 15.1 6 Norte 13 Este 0 -- -- 29
2019-03-28 11:00:00 13.2 5 Nordeste 14 Este 0 -- -- 32
2019-03-28 10:00:00 10.2 7 Este 12 Este 0 -- -- 39
2019-03-28 09:00:00 6.7 7 Este 15 Este 0 -- -- 45
2019-03-28 08:00:00 2.1 6 Este 10 Este 0 -- -- 57
2019-03-28 07:00:00 0.4 6 Este 9 Nordeste 0 -- -- 61
2019-03-28 06:00:00 0.8 5 Este 8 Este 0 -- -- 60
2019-03-28 05:00:00 1.9 5 Este 9 Nordeste 0 -- -- 55
2019-03-28 04:00:00 2.6 8 Nordeste 12 Este 0 -- -- 52
2019-03-28 03:00:00 4.4 6 Nordeste 11 Este 0 -- -- 47
2019-03-28 02:00:00 5.5 3 Nordeste 9 Nordeste 0 -- -- 44
2019-03-28 01:00:00 7.5 4 Este 14 Nordeste 0 -- -- 38
2019-03-28 00:00:00 8.9 10 Este 23 Este 0 -- -- 35
2019-03-27 23:00:00 10.3 15 Este 19 Este 0 -- -- 31
2019-03-27 22:00:00 9 12 Este 15 Este 0 -- -- 36
2019-03-27 21:00:00 10.1 6 Este 9 Este 0 -- -- 40
2019-03-27 20:00:00 13.9 0 Calma 9 Oeste 0 -- -- 31
2019-03-27 19:00:00 19 8 Oeste 13 Noroeste 0 -- -- 22
2019-03-27 18:00:00 20.5 4 Noroeste 12 Oeste 0 -- -- 21
2019-03-27 17:00:00 19.8 4 Sudeste 9 Este 0 -- -- 22
2019-03-27 16:00:00 18.8 3 Norte 17 Norte 0 -- -- 24
2019-03-27 15:00:00 17.9 4 Sur 15 Noroeste 0 -- -- 26
2019-03-27 14:00:00 16.7 5 Noroeste 19 Sudoeste 0 -- -- 30
2019-03-27 13:00:00 15.1 5 Norte 14 Oeste 0 -- -- 34
2019-03-27 12:00:00 13.8 5 Noroeste 14 Oeste 0 -- -- 37
2019-03-27 11:00:00 11.3 3 Norte 15 Norte 0 -- -- 43
2019-03-27 10:00:00 8.7 4 Este 10 Este 0 -- -- 39
2019-03-27 09:00:00 4.7 7 Este 11 Nordeste 0 -- -- 48
2019-03-27 08:00:00 -1.1 0 Calma 3 Nordeste 0 -- -- 73
2019-03-27 07:00:00 -2.3 0 Calma 5 Nordeste 0 -- -- 71
2019-03-27 06:00:00 -1.8 0 Calma 6 Nordeste 0 -- -- 67
2019-03-27 05:00:00 -0.7 3 Este 6 Este 0 -- -- 63
2019-03-27 04:00:00 0.5 2 Este 6 Nordeste 0 -- -- 57
2019-03-27 03:00:00 1.3 6 Este 8 Este 0 -- -- 53
2019-03-27 02:00:00 2.6 4 Este 12 Este 0 -- -- 47
2019-03-27 01:00:00 5.2 12 Nordeste 18 Nordeste 0 -- -- 41
2019-03-27 00:00:00 6.8 6 Nordeste 9 Nordeste 0 -- -- 35
2019-03-26 23:00:00 9 4 Este 17 Este 0 -- -- 31
2019-03-26 22:00:00 10.8 10 Este 18 Nordeste 0 -- -- 28
2019-03-26 21:00:00 13.3 14 Este 29 Este 0 -- -- 24
2019-03-26 20:00:00 16.5 19 Nordeste 32 Nordeste 0 -- -- 20
2019-03-26 19:00:00 18.9 24 Nordeste 40 Nordeste 0 -- -- 21
2019-03-26 18:00:00 20.9 22 Nordeste 35 Nordeste 0 -- -- 17
2019-03-26 17:00:00 21.8 26 Nordeste 38 Este 0 -- -- 20
2019-03-26 16:00:00 22.6 10 Este 28 Este 0 -- -- 21
2019-03-26 15:00:00 22 9 Este 31 Este 0 -- -- 21
2019-03-26 14:00:00 20.9 13 Nordeste 27 Este 0 -- -- 23
2019-03-26 13:00:00 19.2 16 Nordeste 29 Nordeste 0 -- -- 30
2019-03-26 12:00:00 16.9 15 Nordeste 28 Nordeste 0 -- -- 35
2019-03-26 11:00:00 14 20 Nordeste 35 Nordeste 0 -- -- 41
2019-03-26 10:00:00 10.7 25 Nordeste 35 Nordeste 0 -- -- 49
2019-03-26 09:00:00 7.9 26 Nordeste 35 Nordeste 0 -- -- 56
2019-03-26 08:00:00 5.5 19 Nordeste 28 Nordeste 0 -- -- 64
2019-03-26 07:00:00 4.5 17 Nordeste 27 Nordeste 0 -- -- 67
2019-03-26 06:00:00 5 16 Nordeste 30 Este 0 -- -- 66
2019-03-26 05:00:00 5.6 20 Este 36 Nordeste 0 -- -- 63
2019-03-26 04:00:00 6.1 23 Nordeste 37 Nordeste 0 -- -- 61
2019-03-26 03:00:00 6.6 23 Este 35 Este 0 -- -- 59
2019-03-26 02:00:00 7 18 Este 41 Nordeste 0 -- -- 56
2019-03-26 01:00:00 8.3 28 Este 42 Este 0 -- -- 49
2019-03-26 00:00:00 9.7 26 Este 41 Este 0 -- -- 41
2019-03-25 23:00:00 10.8 23 Este 36 Este 0 -- -- 39
2019-03-25 22:00:00 11.8 16 Este 33 Nordeste 0 -- -- 39
2019-03-25 21:00:00 13.8 19 Nordeste 28 Nordeste 0 -- -- 28
2019-03-25 20:00:00 14.3 10 Este 18 Este 0 -- -- 32
2019-03-25 19:00:00 18.9 16 Este 33 Este 0 -- -- 22
2019-03-25 18:00:00 20.8 14 Este 29 Nordeste 0 -- -- 22
2019-03-25 17:00:00 21.6 15 Nordeste 30 Este 0 -- -- 20
2019-03-25 16:00:00 21.8 12 Nordeste 27 Nordeste 0 -- -- 17
2019-03-25 15:00:00 21.6 14 Nordeste 30 Nordeste 0 -- -- 21
2019-03-25 14:00:00 21 11 Nordeste 19 Nordeste 0 -- -- 26
2019-03-25 13:00:00 19.9 11 Nordeste 23 Nordeste 0 -- -- 27
2019-03-25 12:00:00 18.9 17 Nordeste 26 Nordeste 0 -- -- 32
2019-03-25 11:00:00 16.5 17 Nordeste 30 Nordeste 0 -- -- 40
2019-03-25 10:00:00 13.7 19 Nordeste 27 Nordeste 0 -- -- 44
2019-03-25 09:00:00 9.4 12 Nordeste 21 Nordeste 0 -- -- 54
2019-03-25 08:00:00 5.7 14 Nordeste 18 Nordeste 0 -- -- 64
2019-03-25 07:00:00 4.5 7 Este 13 Nordeste 0 -- -- 66
2019-03-25 06:00:00 4.5 6 Este 10 Nordeste 0 -- -- 65
2019-03-25 05:00:00 5.5 8 Este 15 Este 0 -- -- 62
2019-03-25 04:00:00 5.6 8 Este 14 Este 0 -- -- 60
2019-03-25 03:00:00 5.2 0 Calma 4 Nordeste 0 -- -- 56
2019-03-25 02:00:00 7.5 3 Nordeste 10 Este 0 -- -- 52
2019-03-25 01:00:00 9.7 7 Nordeste 22 Nordeste 0 -- -- 45
2019-03-25 00:00:00 12.5 4 Nordeste 10 Este 0 -- -- 41
2019-03-24 23:00:00 12.8 4 Nordeste 9 Este 0 -- -- 37
2019-03-24 22:00:00 12.2 2 Sur 12 Nordeste 0 -- -- 40
2019-03-24 21:00:00 14.8 3 Sur 9 Sudoeste 0 -- -- 33
2019-03-24 20:00:00 17.4 6 Sur 10 Este 0 -- -- 29
2019-03-24 19:00:00 21.3 5 Sudeste 14 Sudeste 0 -- -- 22
2019-03-24 18:00:00 22.2 2 Sur 19 Este 0 -- -- 22
2019-03-24 17:00:00 22.1 13 Este 28 Sudeste 0 -- -- 22
2019-03-24 16:00:00 22.4 14 Este 25 Este 0 -- -- 21
2019-03-24 15:00:00 22.5 10 Sudeste 27 Este 0 -- -- 22
2019-03-24 14:00:00 21.7 11 Sudeste 27 Sudeste 0 -- -- 23
2019-03-24 13:00:00 20.8 20 Sudeste 31 Sudeste 0 -- -- 24
2019-03-24 12:00:00 18.5 6 Este 14 Este 0 -- -- 35
2019-03-24 11:00:00 15.7 6 Este 15 Nordeste 0 -- -- 45
2019-03-24 10:00:00 12.6 12 Este 18 Este 0 -- -- 53
2019-03-24 09:00:00 8.8 10 Este 15 Nordeste 0 -- -- 64
2019-03-24 08:00:00 4.5 6 Este 9 Este 0 -- -- 77
2019-03-24 07:00:00 4.5 6 Este 14 Nordeste 0 -- -- 76
2019-03-24 06:00:00 5.8 9 Este 13 Este 0 -- -- 73
2019-03-24 05:00:00 6.3 9 Este 14 Este 0 -- -- 73
2019-03-24 04:00:00 6.6 7 Este 11 Este 0 -- -- 71
2019-03-24 03:00:00 7.8 3 Este 13 Este 0 -- -- 67
2019-03-24 02:00:00 8.7 7 Este 13 Nordeste 0 -- -- 65
2019-03-24 01:00:00 8.5 6 Este 11 Sudeste 0 -- -- 63
2019-03-24 00:00:00 9.8 3 Sudeste 9 Oeste 0 -- -- 57
2019-03-23 23:00:00 11.5 3 Sudoeste 10 Oeste 0 -- -- 51
2019-03-23 22:00:00 13.2 0 Calma 10 Sudeste 0 -- -- 47
2019-03-23 21:00:00 14.4 0 Calma 15 Sur 0 -- -- 44
2019-03-23 20:00:00 16.3 13 Sur 22 Sudeste 0 -- -- 40
2019-03-23 19:00:00 17.6 13 Sur 22 Sur 0 -- -- 37
2019-03-23 18:00:00 18.9 13 Sur 22 Sudeste 0 -- -- 33
2019-03-23 17:00:00 20.1 10 Sur 23 Sur 0 -- -- 30
2019-03-23 16:00:00 19.5 5 Sur 13 Sur 0 -- -- 32
2019-03-23 15:00:00 19.9 8 Sur 17 Este 0 -- -- 31
2019-03-23 14:00:00 21.7 11 Sudeste 26 Sudeste 0 -- -- 29
2019-03-23 13:00:00 20.3 17 Este 29 Nordeste 0 -- -- 30
2019-03-23 12:00:00 18.7 15 Nordeste 22 Nordeste 0 -- -- 34
2019-03-23 11:00:00 14.9 9 Este 15 Este 0 -- -- 46
2019-03-23 10:00:00 11 13 Este 18 Nordeste 0 -- -- 54
2019-03-23 09:00:00 7.8 12 Este 18 Este 0 -- -- 62
2019-03-23 08:00:00 3.4 9 Este 13 Este 0 -- -- 77
2019-03-23 07:00:00 2.3 7 Este 10 Este 0 -- -- 79
2019-03-23 06:00:00 2.8 6 Este 11 Este 0 -- -- 76
2019-03-23 05:00:00 4.1 7 Este 11 Este 0 -- -- 71
2019-03-23 04:00:00 5 6 Este 10 Este 0 -- -- 71
2019-03-23 03:00:00 6.2 7 Nordeste 9 Nordeste 0 -- -- 65
2019-03-23 02:00:00 8.7 8 Este 10 Nordeste 0 -- -- 62
2019-03-23 01:00:00 11.1 0 Calma 9 Sudeste 0 -- -- 52
2019-03-23 00:00:00 12.3 3 Oeste 15 Oeste 0 -- -- 48
2019-03-22 23:00:00 13.4 7 Sur 29 Sur 0 -- -- 45
2019-03-22 22:00:00 13.7 14 Sur 21 Sur 0 -- -- 43
2019-03-22 21:00:00 13.5 4 Sudeste 9 Sur 0 -- -- 45
2019-03-22 20:00:00 15.5 0 Calma 9 Sur 0 -- -- 36
2019-03-22 19:00:00 19.3 5 Sudoeste 9 Oeste 0 -- -- 29
2019-03-22 18:00:00 20.1 3 Sur 13 Noroeste 0 -- -- 27
2019-03-22 17:00:00 19.5 6 Nordeste 15 Noroeste 0 -- -- 28
2019-03-22 16:00:00 19.5 8 Este 21 Sudeste 0 -- -- 29
2019-03-22 15:00:00 19 12 Este 39 Este 0 -- -- 29
2019-03-22 14:00:00 17.8 12 Nordeste 19 Nordeste 0 -- -- 30
2019-03-22 13:00:00 16 8 Norte 15 Este 0 -- -- 33
2019-03-22 12:00:00 14.1 4 Noroeste 15 Nordeste 0 -- -- 36
2019-03-22 11:00:00 11.7 7 Nordeste 15 Nordeste 0 -- -- 42
2019-03-22 10:00:00 7.9 8 Este 15 Este 0 -- -- 50
2019-03-22 09:00:00 4 9 Nordeste 15 Este 0 -- -- 62
2019-03-22 08:00:00 0 6 Este 12 Este 0 -- -- 75
2019-03-22 07:00:00 -1.3 8 Este 11 Nordeste 0 -- -- 79
2019-03-22 06:00:00 -1.5 6 Este 8 Este 0 -- -- 78
2019-03-22 05:00:00 -0.1 4 Nordeste 6 Este 0 -- -- 72
2019-03-22 04:00:00 1.4 6 Este 9 Nordeste 0 -- -- 68
2019-03-22 03:00:00 3.1 6 Este 14 Nordeste 0 -- -- 60
2019-03-22 02:00:00 7.3 7 Sur 15 Sudeste 0 -- -- 48
2019-03-22 01:00:00 7.7 7 Sudoeste 17 Oeste 0 -- -- 45
2019-03-22 00:00:00 8.2 7 Sudoeste 19 Sudoeste 0 -- -- 44
2019-03-21 23:00:00 5.4 7 Sur 19 Este 0 -- -- 56
2019-03-21 22:00:00 5 7 Este 10 Nordeste 0 -- -- 58
2019-03-21 21:00:00 7.8 0 Calma 4 Sur 0 -- -- 50
2019-03-21 20:00:00 11.7 3 Sur 6 Noroeste 0 -- -- 40
2019-03-21 19:00:00 15.2 5 Noroeste 11 Noroeste 0 -- -- 31
2019-03-21 18:00:00 15.9 5 Norte 15 Norte 0 -- -- 31
2019-03-21 17:00:00 15.8 8 Norte 16 Norte 0 -- -- 32
2019-03-21 16:00:00 15.7 9 Noroeste 15 Oeste 0 -- -- 33
2019-03-21 15:00:00 15.4 6 Norte 25 Noroeste 0 -- -- 35
2019-03-21 14:00:00 14.9 5 Sudoeste 17 Noroeste 0 -- -- 38
2019-03-21 13:00:00 13.3 7 Noroeste 15 Noroeste 0 -- -- 41
2019-03-21 12:00:00 12.6 4 Sur 10 Norte 0 -- -- 45
2019-03-21 11:00:00 10.7 3 Sudeste 10 Este 0 -- -- 44
2019-03-21 10:00:00 7.3 5 Este 12 Este 0 -- -- 52
2019-03-21 09:00:00 3.8 9 Este 13 Este 0 -- -- 62
2019-03-21 08:00:00 -0.9 4 Este 8 Este 0 -- -- 78
2019-03-21 07:00:00 -1.6 3 Este 6 Este 0 -- -- 73
2019-03-21 06:00:00 -0.6 4 Este 6 Este 0 -- -- 73
2019-03-21 05:00:00 0.1 3 Nordeste 6 Este 0 -- -- 68
2019-03-21 04:00:00 0.7 2 Este 9 Este 0 -- -- 65
2019-03-21 03:00:00 2.1 4 Este 9 Este 0 -- -- 59
2019-03-21 02:00:00 3.9 6 Este 13 Este 0 -- -- 54
2019-03-21 01:00:00 5.3 13 Nordeste 21 Este 0 -- -- 48
2019-03-21 00:00:00 6.4 15 Nordeste 25 Este 0 -- -- 45
2019-03-20 23:00:00 6.9 15 Este 23 Nordeste 0 -- -- 44
2019-03-20 22:00:00 7 12 Este 14 Este 0 -- -- 46
2019-03-20 21:00:00 8.5 9 Este 16 Este 0 -- -- 42
2019-03-20 20:00:00 11.8 12 Este 24 Nordeste 0 -- -- 34
2019-03-20 19:00:00 14.2 14 Nordeste 24 Nordeste 0 -- -- 30
2019-03-20 18:00:00 15.3 14 Nordeste 22 Este 0 -- -- 28
2019-03-20 17:00:00 15.7 9 Nordeste 26 Nordeste 0 -- -- 28
2019-03-20 16:00:00 15.5 9 Norte 23 Nordeste 0 -- -- 32
2019-03-20 15:00:00 14.8 9 Nordeste 24 Norte 0 -- -- 32
2019-03-20 14:00:00 14.1 6 Norte 27 Este 0 -- -- 34
2019-03-20 13:00:00 13.1 10 Nordeste 32 Nordeste 0 -- -- 37
2019-03-20 12:00:00 11.8 16 Nordeste 29 Nordeste 0 -- -- 40
2019-03-20 11:00:00 10.4 18 Este 33 Nordeste 0 -- -- 45
2019-03-20 10:00:00 8.4 18 Nordeste 25 Nordeste 0 -- -- 51
2019-03-20 09:00:00 4.4 9 Nordeste 13 Nordeste 0 -- -- 71
2019-03-20 08:00:00 -1.6 3 Este 6 Este 0 -- -- 87
2019-03-20 07:00:00 -1.4 5 Este 8 Nordeste 0 -- -- 84
2019-03-20 06:00:00 -0.3 2 Sudoeste 10 Norte 0 -- -- 77
2019-03-20 05:00:00 0.8 0 Calma 14 Norte 0 -- -- 74
2019-03-20 04:00:00 3.3 8 Norte 15 Norte 0 -- -- 69
2019-03-20 03:00:00 2.8 6 Nordeste 14 Este 0 -- -- 71
2019-03-20 02:00:00 2.6 8 Este 13 Este 0 -- -- 72
2019-03-20 01:00:00 3.9 8 Este 11 Este 0 -- -- 66
2019-03-20 00:00:00 4 4 Nordeste 8 Nordeste 0 -- -- 65
2019-03-19 23:00:00 5.4 8 Nordeste 12 Nordeste 0 -- -- 60
2019-03-19 22:00:00 8.2 3 Este 33 Nordeste 0 -- -- 50
2019-03-19 21:00:00 10.4 23 Nordeste 36 Nordeste 0 -- -- 46
2019-03-19 20:00:00 11.2 18 Nordeste 32 Nordeste 0 -- -- 42
2019-03-19 19:00:00 13.9 19 Norte 35 Nordeste 0 -- -- 37
2019-03-19 18:00:00 14.9 22 Nordeste 36 Norte 0 -- -- 35
2019-03-19 17:00:00 15.6 23 Nordeste 43 Nordeste 0 -- -- 34
2019-03-19 16:00:00 15.8 22 Nordeste 40 Nordeste 0 -- -- 36
2019-03-19 15:00:00 15.7 21 Nordeste 37 Nordeste 0 -- -- 36
2019-03-19 14:00:00 15 18 Nordeste 39 Nordeste 0 -- -- 36
2019-03-19 13:00:00 13.5 19 Nordeste 37 Norte 0 -- -- 39
2019-03-19 12:00:00 12.9 11 Norte 21 Este 0 -- -- 42
2019-03-19 11:00:00 11.7 7 Nordeste 18 Este 0 -- -- 46
2019-03-19 10:00:00 9.5 5 Noroeste 12 Noroeste 0 -- -- 50
2019-03-19 09:00:00 7.5 3 Sur 9 Sudeste 0 -- -- 57
2019-03-19 08:00:00 4.6 2 Sudoeste 5 Oeste 0 -- -- 67
2019-03-19 07:00:00 5.7 0 Calma 9 Este 0 -- -- 62
2019-03-19 06:00:00 5.8 5 Este 13 Nordeste 0 -- -- 60
2019-03-19 05:00:00 5.8 10 Nordeste 16 Este 0 -- -- 60
2019-03-19 04:00:00 5.8 10 Nordeste 18 Este 0 -- -- 60
2019-03-19 03:00:00 5.7 16 Este 22 Nordeste 0 -- -- 60
2019-03-19 02:00:00 5.5 14 Este 19 Nordeste 0 -- -- 60
2019-03-19 01:00:00 5 9 Este 14 Nordeste 0 -- -- 59
2019-03-19 00:00:00 6.3 12 Este 23 Nordeste 0 -- -- 54